createdAt,value
2018-08-27T00:00:09.772Z,3.20
2018-08-27T00:02:38.306Z,3.20
2018-08-27T00:05:06.802Z,3.00
2018-08-27T00:07:35.293Z,4.50
2018-08-27T00:10:04.223Z,3.23
2018-08-27T00:12:32.708Z,3.67
2018-08-27T00:15:01.234Z,3.37
2018-08-27T00:17:29.697Z,2.77
2018-08-27T00:19:58.233Z,1.87
2018-08-27T00:22:27.192Z,4.00
2018-08-27T00:24:55.638Z,1.90
2018-08-27T00:27:24.080Z,2.53
2018-08-27T00:29:52.561Z,7.67
2018-08-27T00:32:21.091Z,3.43
2018-08-27T00:34:49.616Z,1.87
2018-08-27T00:37:18.090Z,3.20
2018-08-27T00:39:46.692Z,2.10
2018-08-27T00:42:15.214Z,4.10
2018-08-27T00:44:43.795Z,2.60
2018-08-27T00:47:12.320Z,3.33
2018-08-27T00:49:40.789Z,2.60
2018-08-27T00:52:09.282Z,3.80
2018-08-27T00:54:37.818Z,3.00
2018-08-27T00:57:06.309Z,4.90
2018-08-27T00:59:34.854Z,3.17
2018-08-27T01:02:03.382Z,3.13
2018-08-27T01:04:31.861Z,4.80
2018-08-27T01:07:00.344Z,6.73
2018-08-27T01:09:28.885Z,2.47
2018-08-27T01:11:57.494Z,4.30
2018-08-27T01:14:26.067Z,3.83
2018-08-27T01:16:54.611Z,4.00
2018-08-27T01:19:23.117Z,6.20
2018-08-27T01:21:51.649Z,4.07
2018-08-27T01:24:20.243Z,5.07
2018-08-27T01:26:48.769Z,11.13
2018-08-27T01:29:17.334Z,5.93
2018-08-27T01:31:50.893Z,7.53
2018-08-27T01:34:19.386Z,7.10
2018-08-27T01:36:47.900Z,8.23
2018-08-27T01:39:16.399Z,10.73
2018-08-27T01:41:44.882Z,12.13
2018-08-27T01:44:13.340Z,10.37
2018-08-27T01:46:41.857Z,10.70
2018-08-27T01:49:10.351Z,10.00
2018-08-27T01:51:38.941Z,5.83
2018-08-27T01:54:07.581Z,7.53
2018-08-27T01:56:36.081Z,7.70
2018-08-27T01:59:04.600Z,8.70
2018-08-27T02:01:33.652Z,13.27
2018-08-27T02:04:02.128Z,7.70
2018-08-27T02:06:36.620Z,10.70
2018-08-27T02:09:07.902Z,7.17
2018-08-27T02:11:36.760Z,8.77
2018-08-27T02:14:05.323Z,16.33
2018-08-27T02:16:33.858Z,8.97
2018-08-27T02:19:02.410Z,8.23
2018-08-27T02:21:30.909Z,10.77
2018-08-27T02:23:59.378Z,11.43
2018-08-27T02:26:28.001Z,9.73
2018-08-27T02:28:56.491Z,8.53
2018-08-27T02:31:24.982Z,7.00
2018-08-27T02:33:53.486Z,9.50
2018-08-27T02:36:21.961Z,8.30
2018-08-27T02:38:50.494Z,8.50
2018-08-27T02:41:18.985Z,8.93
2018-08-27T02:43:47.470Z,8.60
2018-08-27T02:46:16.002Z,7.53
2018-08-27T02:48:44.531Z,16.83
2018-08-27T02:51:13.366Z,9.90
2018-08-27T02:53:41.869Z,12.27
2018-08-27T02:56:10.336Z,11.47
2018-08-27T02:58:38.865Z,13.90
2018-08-27T03:01:07.503Z,11.57
2018-08-27T03:03:36.060Z,12.73
2018-08-27T03:06:04.572Z,10.67
2018-08-27T03:08:33.057Z,10.70
2018-08-27T03:11:01.570Z,9.80
2018-08-27T03:13:30.092Z,10.30
2018-08-27T03:15:58.651Z,13.83
2018-08-27T03:18:27.183Z,11.23
2018-08-27T03:20:55.698Z,11.70
2018-08-27T03:23:24.190Z,9.70
2018-08-27T03:25:52.722Z,11.47
2018-08-27T03:28:21.571Z,9.63
2018-08-27T03:30:50.087Z,11.93
2018-08-27T03:33:18.591Z,12.50
2018-08-27T03:35:47.991Z,11.27
2018-08-27T03:38:16.565Z,11.00
2018-08-27T03:40:45.260Z,12.90
2018-08-27T03:43:13.823Z,11.10
2018-08-27T03:45:42.314Z,21.53
2018-08-27T03:48:10.803Z,12.73
2018-08-27T03:50:39.334Z,13.27
2018-08-27T03:53:07.871Z,12.70
2018-08-27T03:55:36.809Z,10.80
2018-08-27T03:58:05.774Z,12.80
2018-08-27T04:00:34.298Z,10.60
2018-08-27T04:03:02.859Z,15.33
2018-08-27T04:05:31.408Z,12.93
2018-08-27T04:07:59.954Z,12.00
2018-08-27T04:10:28.475Z,9.50
2018-08-27T04:12:56.970Z,11.97
2018-08-27T04:15:25.497Z,10.20
2018-08-27T04:17:54.026Z,13.80
2018-08-27T04:20:23.058Z,12.50
2018-08-27T04:22:51.554Z,12.47
2018-08-27T04:25:20.083Z,11.77
2018-08-27T04:27:48.643Z,11.50
2018-08-27T04:30:17.118Z,10.13
2018-08-27T04:32:45.877Z,12.40
2018-08-27T04:35:14.408Z,12.60
2018-08-27T04:37:42.895Z,12.03
2018-08-27T04:40:11.427Z,11.40
2018-08-27T04:42:40.026Z,12.47
2018-08-27T04:45:08.518Z,14.27
2018-08-27T04:47:36.990Z,11.87
2018-08-27T04:50:05.539Z,12.03
2018-08-27T04:52:34.091Z,13.73
2018-08-27T04:55:02.654Z,10.47
2018-08-27T04:57:31.206Z,13.33
2018-08-27T05:00:02.383Z,13.90
2018-08-27T05:02:30.887Z,12.30
2018-08-27T05:04:59.380Z,15.20
2018-08-27T05:07:27.878Z,14.87
2018-08-27T05:09:56.423Z,14.67
2018-08-27T05:12:24.897Z,13.90
2018-08-27T05:14:53.395Z,17.87
2018-08-27T05:17:28.573Z,15.60
2018-08-27T05:19:57.108Z,15.27
2018-08-27T05:22:25.588Z,12.37
2018-08-27T05:24:54.066Z,13.73
2018-08-27T05:27:22.627Z,13.67
2018-08-27T05:29:51.219Z,15.37
2018-08-27T05:32:19.767Z,16.10
2018-08-27T05:34:48.325Z,17.00
2018-08-27T05:37:16.830Z,14.70
2018-08-27T05:39:45.791Z,13.10
2018-08-27T05:42:14.271Z,15.83
2018-08-27T05:44:42.843Z,14.77
2018-08-27T05:47:11.419Z,15.57
2018-08-27T05:49:39.910Z,15.97
2018-08-27T05:52:08.584Z,15.10
2018-08-27T05:54:37.142Z,16.17
2018-08-27T05:57:05.684Z,15.70
2018-08-27T05:59:34.575Z,13.57
2018-08-27T06:02:03.145Z,15.00
2018-08-27T06:04:31.636Z,15.27
2018-08-27T06:07:00.133Z,16.07
2018-08-27T06:09:28.655Z,15.47
2018-08-27T06:11:57.190Z,15.20
2018-08-27T06:14:25.730Z,19.13
2018-08-27T06:16:54.273Z,20.30
2018-08-27T06:19:22.833Z,21.83
2018-08-27T06:21:51.473Z,22.10
2018-08-27T06:24:19.930Z,19.53
2018-08-27T06:26:48.470Z,21.70
2018-08-27T06:29:17.179Z,18.90
2018-08-27T06:31:45.801Z,22.80
2018-08-27T06:34:14.323Z,19.67
2018-08-27T06:36:42.896Z,22.60
2018-08-27T06:39:11.678Z,24.70
2018-08-27T06:41:40.190Z,25.00
2018-08-27T06:44:08.815Z,30.07
2018-08-27T06:46:37.313Z,22.97
2018-08-27T06:49:06.209Z,29.33
2018-08-27T06:51:34.710Z,23.43
2018-08-27T06:54:03.241Z,22.60
2018-08-27T06:56:31.721Z,21.77
2018-08-27T06:59:00.235Z,22.23
2018-08-27T07:01:28.794Z,21.40
2018-08-27T07:03:57.374Z,26.10
2018-08-27T07:06:25.880Z,18.50
2018-08-27T07:08:54.449Z,18.90
2018-08-27T07:11:22.976Z,22.47
2018-08-27T07:13:51.562Z,19.40
2018-08-27T07:16:20.107Z,19.47
2018-08-27T07:18:48.684Z,18.70
2018-08-27T07:21:17.232Z,15.30
2018-08-27T07:23:45.742Z,20.97
2018-08-27T07:26:14.313Z,18.07
2018-08-27T07:28:42.885Z,16.30
2018-08-27T07:31:11.400Z,18.67
2018-08-27T07:33:39.959Z,15.60
2018-08-27T07:36:08.537Z,17.67
2018-08-27T07:38:37.013Z,18.97
2018-08-27T07:41:05.605Z,19.00
2018-08-27T07:43:34.154Z,20.53
2018-08-27T07:46:02.786Z,16.90
2018-08-27T07:48:31.300Z,22.27
2018-08-27T07:50:59.846Z,17.90
2018-08-27T07:53:28.425Z,22.40
2018-08-27T07:55:57.001Z,21.07
2018-08-27T07:58:25.574Z,19.00
2018-08-27T08:00:54.132Z,18.83
2018-08-27T08:03:22.687Z,17.43
2018-08-27T08:05:51.253Z,17.73
2018-08-27T08:08:19.753Z,23.40
2018-08-27T08:10:48.282Z,21.20
2018-08-27T08:13:16.834Z,26.67
2018-08-27T08:15:45.391Z,22.00
2018-08-27T08:18:20.118Z,18.53
2018-08-27T08:20:49.513Z,19.47
2018-08-27T08:23:18.326Z,19.10
2018-08-27T08:25:47.425Z,17.40
2018-08-27T08:28:15.977Z,18.27
2018-08-27T08:30:44.562Z,19.17
2018-08-27T08:33:13.197Z,19.67
2018-08-27T08:35:42.354Z,17.67
2018-08-27T08:38:10.893Z,20.70
2018-08-27T08:40:39.451Z,17.93
2018-08-27T08:43:07.970Z,15.53
2018-08-27T08:45:36.494Z,21.20
2018-08-27T08:48:05.074Z,17.30
2018-08-27T08:50:33.586Z,17.90
2018-08-27T08:53:02.175Z,20.53
2018-08-27T08:55:30.658Z,18.10
2018-08-27T08:57:59.181Z,17.33
2018-08-27T09:00:27.798Z,21.07
2018-08-27T09:02:56.324Z,19.73
2018-08-27T09:05:24.888Z,18.17
2018-08-27T09:07:53.490Z,20.43
2018-08-27T09:10:21.971Z,20.70
2018-08-27T09:12:50.983Z,19.40
2018-08-27T09:15:19.542Z,20.30
2018-08-27T09:17:48.086Z,17.33
2018-08-27T09:20:16.562Z,18.37
2018-08-27T09:22:45.277Z,14.27
2018-08-27T09:25:13.821Z,15.80
2018-08-27T09:27:42.400Z,14.60
2018-08-27T09:30:10.917Z,16.83
2018-08-27T09:32:39.406Z,16.53
2018-08-27T09:35:08.008Z,14.33
2018-08-27T09:37:36.629Z,9.43
2018-08-27T09:40:05.335Z,11.40
2018-08-27T09:42:33.874Z,13.03
2018-08-27T09:45:02.368Z,12.37
2018-08-27T09:47:31.108Z,11.67
2018-08-27T09:49:59.949Z,11.97
2018-08-27T09:52:28.425Z,10.97
2018-08-27T09:54:57.887Z,14.10
2018-08-27T09:57:26.471Z,9.93
2018-08-27T09:59:54.952Z,14.30
2018-08-27T10:02:23.514Z,17.30
2018-08-27T10:04:52.027Z,17.40
2018-08-27T10:07:20.539Z,16.60
2018-08-27T10:09:49.146Z,16.33
2018-08-27T10:12:17.683Z,16.17
2018-08-27T10:14:46.201Z,13.77
2018-08-27T10:17:14.745Z,14.90
2018-08-27T10:19:43.239Z,13.90
2018-08-27T10:22:11.798Z,13.77
2018-08-27T10:24:40.353Z,12.47
2018-08-27T10:27:08.895Z,12.13
2018-08-27T10:29:37.554Z,10.13
2018-08-27T10:32:06.477Z,14.63
2018-08-27T10:34:35.044Z,11.10
2018-08-27T10:37:03.579Z,9.63
2018-08-27T10:39:32.214Z,9.83
2018-08-27T10:42:00.755Z,9.80
2018-08-27T10:44:29.272Z,9.07
2018-08-27T10:46:57.810Z,9.73
2018-08-27T10:49:26.352Z,9.93
2018-08-27T10:51:54.877Z,10.60
2018-08-27T10:54:23.387Z,10.80
2018-08-27T10:56:51.932Z,9.33
2018-08-27T10:59:20.429Z,11.53
2018-08-27T11:01:48.981Z,13.50
2018-08-27T11:04:17.646Z,11.57
2018-08-27T11:06:46.217Z,12.77
2018-08-27T11:09:14.722Z,14.57
2018-08-27T11:11:43.275Z,16.90
2018-08-27T11:14:11.873Z,15.90
2018-08-27T11:16:40.379Z,13.03
2018-08-27T11:19:09.759Z,14.00
2018-08-27T11:21:38.273Z,15.73
2018-08-27T11:24:12.173Z,16.43
2018-08-27T11:26:45.312Z,14.90
2018-08-27T11:29:14.907Z,15.80
2018-08-27T11:31:44.321Z,12.00
2018-08-27T11:34:12.877Z,13.43
2018-08-27T11:36:41.413Z,16.57
2018-08-27T11:39:12.526Z,18.30
2018-08-27T11:41:41.080Z,13.50
2018-08-27T11:44:09.623Z,15.33
2018-08-27T11:46:38.157Z,11.60
2018-08-27T11:49:07.041Z,17.13
2018-08-27T11:51:35.606Z,15.60
2018-08-27T11:54:04.180Z,10.90
2018-08-27T11:56:32.730Z,14.43
2018-08-27T11:59:01.269Z,15.17
2018-08-27T12:01:29.957Z,16.60
2018-08-27T12:03:58.549Z,20.63
2018-08-27T12:06:28.299Z,11.33
2018-08-27T12:08:56.877Z,11.80
2018-08-27T12:11:25.401Z,12.73
2018-08-27T12:13:54.024Z,10.30
2018-08-27T12:16:22.540Z,14.10
2018-08-27T12:18:51.165Z,9.73
2018-08-27T12:21:19.761Z,10.33
2018-08-27T12:23:48.388Z,11.23
2018-08-27T12:26:16.872Z,13.53
2018-08-27T12:28:45.394Z,13.97
2018-08-27T12:31:13.914Z,8.73
2018-08-27T12:33:42.455Z,6.37
2018-08-27T12:36:10.958Z,8.73
2018-08-27T12:38:39.547Z,11.50
2018-08-27T12:41:08.181Z,7.83
2018-08-27T12:43:36.705Z,14.40
2018-08-27T12:46:05.513Z,10.53
2018-08-27T12:48:34.545Z,17.70
2018-08-27T12:51:03.172Z,17.00
2018-08-27T12:53:31.680Z,13.23
2018-08-27T12:56:01.188Z,8.07
2018-08-27T12:58:29.681Z,9.60
2018-08-27T13:00:58.177Z,11.87
2018-08-27T13:03:26.718Z,10.80
2018-08-27T13:05:55.230Z,7.73
2018-08-27T13:08:23.782Z,9.50
2018-08-27T13:10:52.357Z,7.63
2018-08-27T13:13:21.091Z,8.10
2018-08-27T13:15:49.678Z,9.27
2018-08-27T13:18:24.471Z,5.83
2018-08-27T13:20:53.030Z,8.47
2018-08-27T13:23:21.546Z,14.23
2018-08-27T13:25:50.185Z,7.90
2018-08-27T13:28:18.650Z,9.00
2018-08-27T13:30:47.146Z,9.00
2018-08-27T13:33:15.747Z,9.93
2018-08-27T13:35:44.353Z,13.77
2018-08-27T13:38:12.790Z,9.30
2018-08-27T13:40:41.443Z,8.47
2018-08-27T13:43:09.885Z,12.27
2018-08-27T13:45:38.423Z,10.80
2018-08-27T13:48:07.343Z,21.33
2018-08-27T13:50:35.891Z,13.53
2018-08-27T13:53:04.455Z,7.10
2018-08-27T13:55:33.046Z,12.23
2018-08-27T13:58:01.556Z,10.97
2018-08-27T14:00:30.209Z,18.57
2018-08-27T14:02:58.637Z,11.70
2018-08-27T14:05:27.194Z,16.47
2018-08-27T14:07:55.682Z,8.07
2018-08-27T14:10:24.230Z,9.33
2018-08-27T14:12:52.793Z,8.20
2018-08-27T14:15:21.356Z,9.30
2018-08-27T14:17:49.854Z,14.50
2018-08-27T14:20:18.408Z,16.70
2018-08-27T14:22:46.949Z,13.70
2018-08-27T14:25:15.451Z,16.37
2018-08-27T14:27:43.998Z,13.87
2018-08-27T14:30:12.481Z,14.77
2018-08-27T14:32:41.007Z,15.77
2018-08-27T14:35:09.547Z,13.90
2018-08-27T14:37:38.076Z,15.60
2018-08-27T14:40:07.112Z,14.77
2018-08-27T14:42:35.610Z,10.07
2018-08-27T14:45:04.310Z,9.10
2018-08-27T14:47:32.801Z,13.50
2018-08-27T14:50:01.305Z,16.80
2018-08-27T14:52:29.946Z,15.10
2018-08-27T14:54:58.453Z,16.33
2018-08-27T14:57:26.951Z,12.80
2018-08-27T14:59:55.458Z,14.13
2018-08-27T15:02:24.049Z,6.67
2018-08-27T15:04:52.783Z,16.70
2018-08-27T15:07:22.227Z,11.83
2018-08-27T15:09:50.732Z,12.60
2018-08-27T15:12:19.230Z,12.07
2018-08-27T15:14:47.982Z,9.43
2018-08-27T15:17:16.531Z,7.07
2018-08-27T15:19:45.942Z,13.30
2018-08-27T15:22:14.505Z,15.00
2018-08-27T15:24:43.030Z,13.33
2018-08-27T15:27:11.543Z,14.10
2018-08-27T15:29:40.092Z,18.63
2018-08-27T15:32:08.685Z,8.30
2018-08-27T15:34:37.154Z,9.90
2018-08-27T15:37:05.704Z,11.60
2018-08-27T15:39:34.625Z,10.90
2018-08-27T15:42:03.175Z,12.00
2018-08-27T15:44:31.714Z,14.87
2018-08-27T15:47:00.265Z,9.43
2018-08-27T15:49:28.871Z,8.87
2018-08-27T15:51:57.478Z,10.47
2018-08-27T15:54:26.033Z,9.43
2018-08-27T15:56:54.516Z,8.93
2018-08-27T15:59:23.070Z,11.20
2018-08-27T16:01:51.597Z,13.57
2018-08-27T16:04:20.148Z,12.33
2018-08-27T16:06:48.628Z,9.83
2018-08-27T16:09:17.151Z,6.50
2018-08-27T16:11:45.690Z,12.63
2018-08-27T16:14:14.214Z,9.50
2018-08-27T16:16:42.758Z,7.20
2018-08-27T16:19:11.278Z,12.07
2018-08-27T16:21:39.804Z,8.40
2018-08-27T16:24:08.354Z,7.47
2018-08-27T16:26:40.616Z,11.73
2018-08-27T16:29:09.670Z,16.57
2018-08-27T16:31:38.175Z,12.40
2018-08-27T16:34:06.719Z,8.47
2018-08-27T16:36:35.253Z,6.40
2018-08-27T16:39:04.970Z,14.40
2018-08-27T16:41:33.558Z,8.70
2018-08-27T16:44:02.107Z,9.00
2018-08-27T16:46:30.643Z,18.20
2018-08-27T16:48:59.215Z,9.60
2018-08-27T16:51:28.167Z,10.33
2018-08-27T16:53:56.746Z,7.07
2018-08-27T16:56:25.249Z,11.03
2018-08-27T16:58:53.807Z,5.80
2018-08-27T17:01:22.305Z,11.90
2018-08-27T17:03:50.861Z,9.80
2018-08-27T17:06:19.327Z,8.97
2018-08-27T17:08:47.852Z,9.37
2018-08-27T17:11:16.404Z,11.63
2018-08-27T17:13:44.949Z,9.50
2018-08-27T17:16:13.490Z,10.40
2018-08-27T17:18:42.001Z,10.27
2018-08-27T17:21:10.539Z,12.80
2018-08-27T17:23:39.009Z,11.40
2018-08-27T17:26:07.825Z,13.77
2018-08-27T17:28:36.360Z,7.83
2018-08-27T17:31:04.890Z,9.30
2018-08-27T17:33:33.479Z,7.43
2018-08-27T17:36:02.003Z,10.03
2018-08-27T17:38:30.557Z,8.83
2018-08-27T17:40:59.147Z,10.03
2018-08-27T17:43:27.737Z,8.60
2018-08-27T17:45:56.288Z,9.30
2018-08-27T17:48:24.801Z,6.07
2018-08-27T17:50:53.377Z,11.00
2018-08-27T17:53:21.974Z,9.27
2018-08-27T17:55:50.539Z,8.23
2018-08-27T17:58:19.145Z,8.83
2018-08-27T18:00:47.604Z,10.30
2018-08-27T18:03:16.219Z,8.67
2018-08-27T18:05:44.777Z,6.57
2018-08-27T18:08:13.340Z,12.50
2018-08-27T18:10:41.868Z,8.87
2018-08-27T18:13:10.413Z,7.67
2018-08-27T18:15:38.969Z,14.30
2018-08-27T18:18:07.500Z,8.97
2018-08-27T18:20:35.995Z,8.17
2018-08-27T18:23:04.530Z,9.70
2018-08-27T18:25:33.021Z,11.23
2018-08-27T18:28:01.612Z,10.00
2018-08-27T18:30:30.190Z,9.00
2018-08-27T18:32:58.744Z,12.03
2018-08-27T18:35:27.295Z,12.97
2018-08-27T18:37:55.794Z,10.47
2018-08-27T18:40:24.294Z,9.33
2018-08-27T18:42:52.783Z,12.00
2018-08-27T18:45:21.325Z,7.10
2018-08-27T18:47:49.882Z,11.63
2018-08-27T18:50:18.405Z,7.80
2018-08-27T18:52:46.894Z,9.77
2018-08-27T18:55:15.447Z,8.80
2018-08-27T18:57:44.090Z,16.43
2018-08-27T19:00:12.676Z,10.77
2018-08-27T19:02:41.212Z,9.90
2018-08-27T19:05:09.734Z,11.70
2018-08-27T19:07:38.244Z,8.50
2018-08-27T19:10:06.825Z,11.80
2018-08-27T19:12:35.450Z,16.33
2018-08-27T19:15:04.014Z,9.33
2018-08-27T19:17:32.595Z,7.23
2018-08-27T19:20:01.144Z,8.83
2018-08-27T19:22:29.707Z,7.53
2018-08-27T19:24:58.583Z,25.50
2018-08-27T19:27:33.658Z,17.70
2018-08-27T19:30:02.228Z,11.87
2018-08-27T19:32:30.742Z,12.13
2018-08-27T19:34:59.314Z,9.27
2018-08-27T19:37:27.854Z,14.90
2018-08-27T19:39:56.374Z,10.27
2018-08-27T19:42:24.939Z,7.40
2018-08-27T19:44:53.460Z,12.87
2018-08-27T19:47:22.017Z,13.97
2018-08-27T19:49:50.539Z,12.60
2018-08-27T19:52:19.059Z,12.37
2018-08-27T19:54:47.591Z,8.93
2018-08-27T19:57:16.133Z,6.93
2018-08-27T19:59:44.617Z,8.00
2018-08-27T20:02:13.093Z,9.17
2018-08-27T20:04:41.667Z,8.50
2018-08-27T20:07:10.165Z,7.33
2018-08-27T20:09:38.666Z,13.57
2018-08-27T20:12:07.244Z,4.87
2018-08-27T20:14:35.717Z,7.70
2018-08-27T20:17:04.301Z,3.20
2018-08-27T20:19:32.889Z,3.03
2018-08-27T20:22:01.479Z,3.87
2018-08-27T20:24:30.018Z,4.90
2018-08-27T20:26:58.560Z,3.33
2018-08-27T20:29:27.026Z,6.67
2018-08-27T20:31:55.518Z,10.33
2018-08-27T20:34:24.045Z,6.63
2018-08-27T20:36:52.557Z,5.57
2018-08-27T20:39:21.147Z,5.73
2018-08-27T20:41:50.262Z,6.27
2018-08-27T20:44:18.722Z,6.90
2018-08-27T20:46:47.255Z,6.37
2018-08-27T20:49:15.734Z,3.73
2018-08-27T20:51:44.247Z,6.63
2018-08-27T20:54:12.961Z,10.10
2018-08-27T20:56:41.458Z,9.10
2018-08-27T20:59:10.109Z,5.53
2018-08-27T21:01:38.629Z,10.20
2018-08-27T21:04:07.139Z,4.53
2018-08-27T21:06:35.674Z,8.33
2018-08-27T21:09:04.319Z,5.53
2018-08-27T21:11:32.854Z,8.03
2018-08-27T21:14:15.223Z,4.90
2018-08-27T21:16:43.693Z,6.87
2018-08-27T21:19:12.211Z,4.50
2018-08-27T21:21:40.691Z,6.43
2018-08-27T21:24:09.182Z,11.80
2018-08-27T21:26:37.704Z,7.60
2018-08-27T21:29:06.197Z,8.57
2018-08-27T21:31:34.685Z,7.77
2018-08-27T21:34:03.187Z,6.53
2018-08-27T21:36:31.794Z,14.83
2018-08-27T21:39:00.441Z,8.07
2018-08-27T21:41:28.923Z,11.73
2018-08-27T21:43:57.492Z,6.67
2018-08-27T21:46:25.998Z,9.23
2018-08-27T21:48:54.563Z,5.90
2018-08-27T21:51:23.071Z,5.90
2018-08-27T21:53:51.561Z,7.70
2018-08-27T21:56:20.106Z,6.30
2018-08-27T21:58:48.700Z,6.67
2018-08-27T22:01:17.220Z,10.43
2018-08-27T22:03:50.826Z,11.57
2018-08-27T22:06:19.330Z,13.70
2018-08-27T22:08:47.841Z,9.90
2018-08-27T22:11:16.328Z,9.70
2018-08-27T22:13:44.840Z,10.27
2018-08-27T22:16:13.432Z,13.00
2018-08-27T22:18:41.905Z,12.37
2018-08-27T22:21:10.490Z,13.30
2018-08-27T22:23:39.016Z,8.90
2018-08-27T22:26:07.578Z,9.37
2018-08-27T22:28:36.215Z,6.00
2018-08-27T22:31:05.031Z,5.43
2018-08-27T22:33:33.527Z,10.83
2018-08-27T22:36:02.362Z,21.17
2018-08-27T22:38:30.886Z,10.10
2018-08-27T22:40:59.409Z,9.97
2018-08-27T22:43:27.931Z,8.80
2018-08-27T22:45:56.465Z,10.73
2018-08-27T22:48:24.967Z,10.30
2018-08-27T22:50:53.466Z,9.50
2018-08-27T22:53:22.002Z,11.27
2018-08-27T22:55:50.548Z,11.53
2018-08-27T22:58:19.102Z,6.73
2018-08-27T23:00:47.719Z,13.53
2018-08-27T23:03:21.947Z,10.43
2018-08-27T23:05:50.438Z,9.57
2018-08-27T23:08:18.977Z,9.93
2018-08-27T23:10:47.541Z,10.47
2018-08-27T23:13:16.083Z,14.40
2018-08-27T23:15:44.971Z,11.77
2018-08-27T23:18:13.473Z,10.93
2018-08-27T23:20:42.015Z,9.87
2018-08-27T23:23:10.901Z,13.07
2018-08-27T23:25:39.360Z,10.93
2018-08-27T23:28:07.896Z,11.83
2018-08-27T23:30:36.402Z,8.57
2018-08-27T23:33:05.063Z,11.13
2018-08-27T23:35:33.598Z,6.87
2018-08-27T23:38:02.071Z,10.63
2018-08-27T23:40:30.629Z,10.87
2018-08-27T23:42:59.111Z,11.33
2018-08-27T23:45:27.633Z,6.63
2018-08-27T23:47:56.147Z,9.27
2018-08-27T23:50:24.666Z,5.83
2018-08-27T23:52:53.185Z,15.90
2018-08-27T23:55:21.645Z,10.80
2018-08-27T23:57:50.182Z,7.97
